sensor_id;sensor_type;location;lat;lon;timestamp;P1;durP1;ratioP1;P2;durP2;ratioP2
15996;SDS011;8103;51.340;12.326;2022-08-19T00:00:06;21.80;;;19.58;;
15996;SDS011;8103;51.340;12.326;2022-08-19T00:02:36;20.30;;;18.40;;
15996;SDS011;8103;51.340;12.326;2022-08-19T00:05:03;21.27;;;19.17;;
15996;SDS011;8103;51.340;12.326;2022-08-19T00:07:30;20.13;;;18.23;;
15996;SDS011;8103;51.340;12.326;2022-08-19T00:09:57;20.50;;;18.55;;
15996;SDS011;8103;51.340;12.326;2022-08-19T00:12:27;22.88;;;20.60;;
15996;SDS011;8103;51.340;12.326;2022-08-19T00:14:54;22.00;;;20.00;;
15996;SDS011;8103;51.340;12.326;2022-08-19T00:17:21;24.08;;;21.70;;
15996;SDS011;8103;51.340;12.326;2022-08-19T00:19:48;22.90;;;20.70;;
15996;SDS011;8103;51.340;12.326;2022-08-19T00:22:15;20.00;;;18.08;;
15996;SDS011;8103;51.340;12.326;2022-08-19T00:24:44;20.95;;;18.88;;
15996;SDS011;8103;51.340;12.326;2022-08-19T00:27:14;24.60;;;22.10;;
15996;SDS011;8103;51.340;12.326;2022-08-19T00:29:51;24.48;;;22.08;;
15996;SDS011;8103;51.340;12.326;2022-08-19T00:32:18;25.38;;;22.92;;
15996;SDS011;8103;51.340;12.326;2022-08-19T00:34:45;26.75;;;24.00;;
15996;SDS011;8103;51.340;12.326;2022-08-19T00:37:12;25.05;;;22.35;;
15996;SDS011;8103;51.340;12.326;2022-08-19T00:39:39;27.33;;;24.58;;
15996;SDS011;8103;51.340;12.326;2022-08-19T00:42:05;26.35;;;23.88;;
15996;SDS011;8103;51.340;12.326;2022-08-19T00:44:32;29.77;;;26.67;;
15996;SDS011;8103;51.340;12.326;2022-08-19T00:46:59;30.05;;;26.83;;
15996;SDS011;8103;51.340;12.326;2022-08-19T00:49:34;28.90;;;26.02;;
15996;SDS011;8103;51.340;12.326;2022-08-19T00:52:07;23.90;;;21.50;;
15996;SDS011;8103;51.340;12.326;2022-08-19T00:54:38;23.35;;;20.88;;
15996;SDS011;8103;51.340;12.326;2022-08-19T00:57:07;22.98;;;20.88;;
15996;SDS011;8103;51.340;12.326;2022-08-19T00:59:39;25.83;;;23.10;;
15996;SDS011;8103;51.340;12.326;2022-08-19T01:02:19;29.23;;;26.38;;
15996;SDS011;8103;51.340;12.326;2022-08-19T01:04:45;26.90;;;24.30;;
15996;SDS011;8103;51.340;12.326;2022-08-19T01:07:12;26.60;;;23.92;;
15996;SDS011;8103;51.340;12.326;2022-08-19T01:09:40;29.48;;;26.45;;
15996;SDS011;8103;51.340;12.326;2022-08-19T01:12:07;26.40;;;23.90;;
15996;SDS011;8103;51.340;12.326;2022-08-19T01:14:35;29.00;;;25.90;;
15996;SDS011;8103;51.340;12.326;2022-08-19T01:17:05;25.55;;;23.08;;
15996;SDS011;8103;51.340;12.326;2022-08-19T01:19:35;30.50;;;27.35;;
15996;SDS011;8103;51.340;12.326;2022-08-19T01:24:51;25.95;;;23.45;;
15996;SDS011;8103;51.340;12.326;2022-08-19T01:27:18;23.42;;;21.02;;
15996;SDS011;8103;51.340;12.326;2022-08-19T01:29:45;22.90;;;20.80;;
15996;SDS011;8103;51.340;12.326;2022-08-19T01:32:13;25.45;;;22.98;;
15996;SDS011;8103;51.340;12.326;2022-08-19T01:34:46;23.38;;;21.20;;
15996;SDS011;8103;51.340;12.326;2022-08-19T01:37:13;23.98;;;21.50;;
15996;SDS011;8103;51.340;12.326;2022-08-19T01:39:40;30.58;;;27.52;;
15996;SDS011;8103;51.340;12.326;2022-08-19T01:42:08;25.23;;;22.70;;
15996;SDS011;8103;51.340;12.326;2022-08-19T01:44:38;29.13;;;26.10;;
15996;SDS011;8103;51.340;12.326;2022-08-19T01:47:07;26.35;;;23.70;;
15996;SDS011;8103;51.340;12.326;2022-08-19T01:49:35;26.75;;;24.23;;
15996;SDS011;8103;51.340;12.326;2022-08-19T01:52:03;24.00;;;21.80;;
15996;SDS011;8103;51.340;12.326;2022-08-19T01:54:31;23.10;;;20.80;;
15996;SDS011;8103;51.340;12.326;2022-08-19T01:57:00;28.65;;;25.85;;
15996;SDS011;8103;51.340;12.326;2022-08-19T01:59:29;25.90;;;23.27;;
15996;SDS011;8103;51.340;12.326;2022-08-19T02:01:57;23.13;;;20.83;;
15996;SDS011;8103;51.340;12.326;2022-08-19T02:04:24;24.98;;;22.58;;
15996;SDS011;8103;51.340;12.326;2022-08-19T02:06:53;21.13;;;19.23;;
15996;SDS011;8103;51.340;12.326;2022-08-19T02:09:20;30.15;;;27.00;;
15996;SDS011;8103;51.340;12.326;2022-08-19T02:11:46;26.95;;;24.25;;
15996;SDS011;8103;51.340;12.326;2022-08-19T02:14:13;28.10;;;25.42;;
15996;SDS011;8103;51.340;12.326;2022-08-19T02:16:40;25.30;;;22.63;;
15996;SDS011;8103;51.340;12.326;2022-08-19T02:19:07;26.33;;;23.77;;
15996;SDS011;8103;51.340;12.326;2022-08-19T02:21:34;27.17;;;24.35;;
15996;SDS011;8103;51.340;12.326;2022-08-19T02:24:00;29.75;;;26.83;;
15996;SDS011;8103;51.340;12.326;2022-08-19T02:26:28;27.83;;;25.05;;
15996;SDS011;8103;51.340;12.326;2022-08-19T02:28:55;30.52;;;27.48;;
15996;SDS011;8103;51.340;12.326;2022-08-19T02:31:23;26.58;;;23.88;;
15996;SDS011;8103;51.340;12.326;2022-08-19T02:33:51;22.98;;;20.88;;
15996;SDS011;8103;51.340;12.326;2022-08-19T02:36:21;21.52;;;19.42;;
15996;SDS011;8103;51.340;12.326;2022-08-19T02:38:49;28.20;;;25.38;;
15996;SDS011;8103;51.340;12.326;2022-08-19T02:41:21;22.42;;;20.33;;
15996;SDS011;8103;51.340;12.326;2022-08-19T02:43:51;23.38;;;21.17;;
15996;SDS011;8103;51.340;12.326;2022-08-19T02:46:38;23.60;;;21.10;;
15996;SDS011;8103;51.340;12.326;2022-08-19T02:49:06;24.52;;;22.15;;
15996;SDS011;8103;51.340;12.326;2022-08-19T02:51:38;24.13;;;21.92;;
15996;SDS011;8103;51.340;12.326;2022-08-19T02:54:07;28.10;;;25.40;;
15996;SDS011;8103;51.340;12.326;2022-08-19T02:56:36;22.85;;;20.45;;
15996;SDS011;8103;51.340;12.326;2022-08-19T02:59:04;22.17;;;20.10;;
15996;SDS011;8103;51.340;12.326;2022-08-19T03:01:37;21.88;;;19.90;;
15996;SDS011;8103;51.340;12.326;2022-08-19T03:04:07;24.35;;;22.15;;
15996;SDS011;8103;51.340;12.326;2022-08-19T03:06:38;23.02;;;20.73;;
15996;SDS011;8103;51.340;12.326;2022-08-19T03:09:07;22.65;;;20.55;;
15996;SDS011;8103;51.340;12.326;2022-08-19T03:11:35;22.15;;;20.02;;
15996;SDS011;8103;51.340;12.326;2022-08-19T03:14:03;23.92;;;21.17;;
15996;SDS011;8103;51.340;12.326;2022-08-19T03:16:32;22.30;;;20.20;;
15996;SDS011;8103;51.340;12.326;2022-08-19T03:19:00;21.88;;;19.88;;
15996;SDS011;8103;51.340;12.326;2022-08-19T03:21:29;21.92;;;19.80;;
15996;SDS011;8103;51.340;12.326;2022-08-19T03:23:58;20.75;;;18.88;;
15996;SDS011;8103;51.340;12.326;2022-08-19T03:26:30;21.02;;;19.15;;
15996;SDS011;8103;51.340;12.326;2022-08-19T03:28:57;19.80;;;18.00;;
15996;SDS011;8103;51.340;12.326;2022-08-19T03:31:27;18.63;;;16.90;;
15996;SDS011;8103;51.340;12.326;2022-08-19T03:34:08;20.00;;;18.00;;
15996;SDS011;8103;51.340;12.326;2022-08-19T03:36:37;19.70;;;18.10;;
15996;SDS011;8103;51.340;12.326;2022-08-19T03:39:04;21.33;;;19.38;;
15996;SDS011;8103;51.340;12.326;2022-08-19T03:41:32;18.70;;;17.08;;
15996;SDS011;8103;51.340;12.326;2022-08-19T03:44:11;21.00;;;19.10;;
15996;SDS011;8103;51.340;12.326;2022-08-19T03:46:47;16.80;;;15.38;;
15996;SDS011;8103;51.340;12.326;2022-08-19T03:49:17;17.23;;;15.82;;
15996;SDS011;8103;51.340;12.326;2022-08-19T03:51:46;23.40;;;21.20;;
15996;SDS011;8103;51.340;12.326;2022-08-19T03:54:15;21.20;;;19.20;;
15996;SDS011;8103;51.340;12.326;2022-08-19T03:56:44;19.10;;;17.50;;
15996;SDS011;8103;51.340;12.326;2022-08-19T03:59:14;19.15;;;17.45;;
15996;SDS011;8103;51.340;12.326;2022-08-19T04:01:43;18.75;;;17.15;;
15996;SDS011;8103;51.340;12.326;2022-08-19T04:04:10;20.25;;;18.30;;
15996;SDS011;8103;51.340;12.326;2022-08-19T04:06:37;23.48;;;21.27;;
15996;SDS011;8103;51.340;12.326;2022-08-19T04:09:06;23.80;;;21.50;;
15996;SDS011;8103;51.340;12.326;2022-08-19T04:11:39;18.27;;;16.75;;
15996;SDS011;8103;51.340;12.326;2022-08-19T04:14:11;19.83;;;18.13;;
15996;SDS011;8103;51.340;12.326;2022-08-19T04:16:40;19.35;;;17.48;;
15996;SDS011;8103;51.340;12.326;2022-08-19T04:19:10;20.90;;;19.08;;
15996;SDS011;8103;51.340;12.326;2022-08-19T04:21:38;22.52;;;20.52;;
15996;SDS011;8103;51.340;12.326;2022-08-19T04:24:05;25.08;;;22.70;;
15996;SDS011;8103;51.340;12.326;2022-08-19T04:26:33;22.58;;;20.48;;
15996;SDS011;8103;51.340;12.326;2022-08-19T04:29:04;26.80;;;24.30;;
15996;SDS011;8103;51.340;12.326;2022-08-19T04:31:37;29.08;;;26.17;;
15996;SDS011;8103;51.340;12.326;2022-08-19T04:34:05;28.17;;;25.73;;
15996;SDS011;8103;51.340;12.326;2022-08-19T04:36:35;29.50;;;26.65;;
15996;SDS011;8103;51.340;12.326;2022-08-19T04:39:11;30.02;;;27.08;;
15996;SDS011;8103;51.340;12.326;2022-08-19T04:41:41;25.30;;;22.75;;
15996;SDS011;8103;51.340;12.326;2022-08-19T04:44:26;25.73;;;23.42;;
15996;SDS011;8103;51.340;12.326;2022-08-19T04:46:56;25.45;;;23.08;;
15996;SDS011;8103;51.340;12.326;2022-08-19T04:49:23;25.77;;;23.17;;
15996;SDS011;8103;51.340;12.326;2022-08-19T04:51:52;23.92;;;21.73;;
15996;SDS011;8103;51.340;12.326;2022-08-19T04:54:20;27.70;;;24.77;;
15996;SDS011;8103;51.340;12.326;2022-08-19T04:57:03;25.08;;;22.60;;
15996;SDS011;8103;51.340;12.326;2022-08-19T04:59:32;26.23;;;23.63;;
15996;SDS011;8103;51.340;12.326;2022-08-19T05:01:59;24.70;;;22.45;;
15996;SDS011;8103;51.340;12.326;2022-08-19T05:04:26;27.73;;;24.98;;
15996;SDS011;8103;51.340;12.326;2022-08-19T05:06:54;22.65;;;20.65;;
15996;SDS011;8103;51.340;12.326;2022-08-19T05:09:22;24.73;;;22.50;;
15996;SDS011;8103;51.340;12.326;2022-08-19T05:11:49;27.08;;;24.38;;
15996;SDS011;8103;51.340;12.326;2022-08-19T05:14:18;26.13;;;23.52;;
15996;SDS011;8103;51.340;12.326;2022-08-19T05:16:47;31.08;;;27.83;;
15996;SDS011;8103;51.340;12.326;2022-08-19T05:19:14;28.02;;;25.45;;
15996;SDS011;8103;51.340;12.326;2022-08-19T05:21:59;26.70;;;24.05;;
15996;SDS011;8103;51.340;12.326;2022-08-19T05:24:45;28.23;;;25.30;;
15996;SDS011;8103;51.340;12.326;2022-08-19T05:27:32;32.67;;;29.42;;
15996;SDS011;8103;51.340;12.326;2022-08-19T05:30:00;30.88;;;28.02;;
15996;SDS011;8103;51.340;12.326;2022-08-19T05:32:28;29.27;;;26.65;;
15996;SDS011;8103;51.340;12.326;2022-08-19T05:34:57;25.45;;;23.05;;
15996;SDS011;8103;51.340;12.326;2022-08-19T05:37:26;34.38;;;31.00;;
15996;SDS011;8103;51.340;12.326;2022-08-19T05:39:53;28.75;;;26.13;;
15996;SDS011;8103;51.340;12.326;2022-08-19T05:42:21;30.92;;;27.85;;
15996;SDS011;8103;51.340;12.326;2022-08-19T05:44:52;32.13;;;28.80;;
15996;SDS011;8103;51.340;12.326;2022-08-19T05:47:19;30.75;;;27.60;;
15996;SDS011;8103;51.340;12.326;2022-08-19T05:49:47;29.33;;;26.55;;
15996;SDS011;8103;51.340;12.326;2022-08-19T05:52:16;35.38;;;31.70;;
15996;SDS011;8103;51.340;12.326;2022-08-19T05:54:51;32.92;;;29.52;;
15996;SDS011;8103;51.340;12.326;2022-08-19T05:57:22;34.50;;;31.10;;
15996;SDS011;8103;51.340;12.326;2022-08-19T05:59:50;28.58;;;25.60;;
15996;SDS011;8103;51.340;12.326;2022-08-19T06:02:23;30.65;;;27.35;;
15996;SDS011;8103;51.340;12.326;2022-08-19T06:04:57;31.60;;;28.52;;
15996;SDS011;8103;51.340;12.326;2022-08-19T06:07:24;32.53;;;29.33;;
15996;SDS011;8103;51.340;12.326;2022-08-19T06:09:54;31.63;;;28.58;;
15996;SDS011;8103;51.340;12.326;2022-08-19T06:12:24;30.48;;;27.52;;
15996;SDS011;8103;51.340;12.326;2022-08-19T06:14:59;35.17;;;31.42;;
15996;SDS011;8103;51.340;12.326;2022-08-19T06:17:39;30.27;;;27.48;;
15996;SDS011;8103;51.340;12.326;2022-08-19T06:20:09;33.85;;;30.35;;
15996;SDS011;8103;51.340;12.326;2022-08-19T06:22:39;29.50;;;26.63;;
15996;SDS011;8103;51.340;12.326;2022-08-19T06:25:07;26.05;;;23.55;;
15996;SDS011;8103;51.340;12.326;2022-08-19T06:27:37;32.95;;;29.75;;
15996;SDS011;8103;51.340;12.326;2022-08-19T06:30:24;31.60;;;28.40;;
15996;SDS011;8103;51.340;12.326;2022-08-19T06:32:51;34.13;;;30.45;;
15996;SDS011;8103;51.340;12.326;2022-08-19T06:35:19;30.67;;;27.65;;
15996;SDS011;8103;51.340;12.326;2022-08-19T06:37:49;38.42;;;33.70;;
15996;SDS011;8103;51.340;12.326;2022-08-19T06:40:16;31.63;;;28.42;;
15996;SDS011;8103;51.340;12.326;2022-08-19T06:42:44;30.92;;;27.70;;
15996;SDS011;8103;51.340;12.326;2022-08-19T06:45:14;31.38;;;28.25;;
15996;SDS011;8103;51.340;12.326;2022-08-19T06:47:41;37.78;;;33.92;;
15996;SDS011;8103;51.340;12.326;2022-08-19T06:50:12;36.42;;;32.78;;
15996;SDS011;8103;51.340;12.326;2022-08-19T06:52:39;34.72;;;31.02;;
15996;SDS011;8103;51.340;12.326;2022-08-19T06:55:06;39.85;;;33.50;;
15996;SDS011;8103;51.340;12.326;2022-08-19T06:57:33;36.40;;;32.67;;
15996;SDS011;8103;51.340;12.326;2022-08-19T07:00:02;36.58;;;32.22;;
15996;SDS011;8103;51.340;12.326;2022-08-19T07:02:33;32.92;;;28.38;;
15996;SDS011;8103;51.340;12.326;2022-08-19T07:05:07;33.03;;;29.55;;
15996;SDS011;8103;51.340;12.326;2022-08-19T07:07:34;33.83;;;30.10;;
15996;SDS011;8103;51.340;12.326;2022-08-19T07:10:02;32.83;;;29.08;;
15996;SDS011;8103;51.340;12.326;2022-08-19T07:12:32;28.70;;;25.55;;
15996;SDS011;8103;51.340;12.326;2022-08-19T07:15:01;35.55;;;31.30;;
15996;SDS011;8103;51.340;12.326;2022-08-19T07:17:32;29.20;;;26.30;;
15996;SDS011;8103;51.340;12.326;2022-08-19T07:20:03;28.83;;;25.55;;
15996;SDS011;8103;51.340;12.326;2022-08-19T07:22:34;31.65;;;26.45;;
15996;SDS011;8103;51.340;12.326;2022-08-19T07:25:06;31.98;;;28.58;;
15996;SDS011;8103;51.340;12.326;2022-08-19T07:27:35;29.35;;;26.27;;
15996;SDS011;8103;51.340;12.326;2022-08-19T07:30:04;29.00;;;25.58;;
15996;SDS011;8103;51.340;12.326;2022-08-19T07:32:36;26.27;;;23.63;;
15996;SDS011;8103;51.340;12.326;2022-08-19T07:35:04;30.05;;;25.48;;
15996;SDS011;8103;51.340;12.326;2022-08-19T07:37:35;25.52;;;23.02;;
15996;SDS011;8103;51.340;12.326;2022-08-19T07:40:03;28.40;;;22.85;;
15996;SDS011;8103;51.340;12.326;2022-08-19T07:42:32;30.60;;;27.38;;
15996;SDS011;8103;51.340;12.326;2022-08-19T07:44:59;30.25;;;27.30;;
15996;SDS011;8103;51.340;12.326;2022-08-19T07:47:26;29.95;;;26.77;;
15996;SDS011;8103;51.340;12.326;2022-08-19T07:50:13;28.40;;;25.40;;
15996;SDS011;8103;51.340;12.326;2022-08-19T07:52:40;24.75;;;22.23;;
15996;SDS011;8103;51.340;12.326;2022-08-19T07:55:09;26.20;;;23.50;;
15996;SDS011;8103;51.340;12.326;2022-08-19T07:57:56;25.23;;;22.65;;
15996;SDS011;8103;51.340;12.326;2022-08-19T08:00:23;20.17;;;18.08;;
15996;SDS011;8103;51.340;12.326;2022-08-19T08:02:51;25.70;;;22.42;;
15996;SDS011;8103;51.340;12.326;2022-08-19T08:05:20;23.50;;;20.85;;
15996;SDS011;8103;51.340;12.326;2022-08-19T08:08:08;38.05;;;26.30;;
15996;SDS011;8103;51.340;12.326;2022-08-19T08:10:54;22.92;;;20.63;;
15996;SDS011;8103;51.340;12.326;2022-08-19T08:13:22;21.33;;;17.90;;
15996;SDS011;8103;51.340;12.326;2022-08-19T08:15:48;23.08;;;20.85;;
15996;SDS011;8103;51.340;12.326;2022-08-19T08:18:17;25.67;;;23.17;;
15996;SDS011;8103;51.340;12.326;2022-08-19T08:20:44;27.38;;;23.40;;
15996;SDS011;8103;51.340;12.326;2022-08-19T08:23:11;25.25;;;22.55;;
15996;SDS011;8103;51.340;12.326;2022-08-19T08:25:55;22.73;;;20.50;;
15996;SDS011;8103;51.340;12.326;2022-08-19T08:28:24;26.30;;;22.38;;
15996;SDS011;8103;51.340;12.326;2022-08-19T08:30:55;21.10;;;18.90;;
15996;SDS011;8103;51.340;12.326;2022-08-19T08:33:24;30.02;;;23.35;;
15996;SDS011;8103;51.340;12.326;2022-08-19T08:35:53;22.20;;;19.92;;
15996;SDS011;8103;51.340;12.326;2022-08-19T08:38:20;25.88;;;20.30;;
15996;SDS011;8103;51.340;12.326;2022-08-19T08:40:49;23.77;;;21.08;;
15996;SDS011;8103;51.340;12.326;2022-08-19T08:46:03;28.38;;;24.73;;
15996;SDS011;8103;51.340;12.326;2022-08-19T08:49:04;26.05;;;23.25;;
15996;SDS011;8103;51.340;12.326;2022-08-19T08:52:24;24.85;;;22.17;;
15996;SDS011;8103;51.340;12.326;2022-08-19T08:54:58;24.70;;;20.42;;
15996;SDS011;8103;51.340;12.326;2022-08-19T08:57:32;23.55;;;21.20;;
15996;SDS011;8103;51.340;12.326;2022-08-19T09:00:07;23.25;;;20.95;;
15996;SDS011;8103;51.340;12.326;2022-08-19T09:02:40;21.92;;;19.63;;
15996;SDS011;8103;51.340;12.326;2022-08-19T09:05:08;25.23;;;22.75;;
15996;SDS011;8103;51.340;12.326;2022-08-19T09:07:49;23.10;;;20.48;;
15996;SDS011;8103;51.340;12.326;2022-08-19T09:10:33;21.27;;;18.85;;
15996;SDS011;8103;51.340;12.326;2022-08-19T09:16:31;22.02;;;19.73;;
15996;SDS011;8103;51.340;12.326;2022-08-19T09:19:00;24.52;;;21.92;;
15996;SDS011;8103;51.340;12.326;2022-08-19T09:21:29;25.27;;;22.50;;
15996;SDS011;8103;51.340;12.326;2022-08-19T09:23:58;25.27;;;22.02;;
15996;SDS011;8103;51.340;12.326;2022-08-19T09:26:25;21.67;;;19.30;;
15996;SDS011;8103;51.340;12.326;2022-08-19T09:28:54;23.63;;;21.05;;
15996;SDS011;8103;51.340;12.326;2022-08-19T09:31:23;28.27;;;23.25;;
15996;SDS011;8103;51.340;12.326;2022-08-19T09:33:52;24.80;;;22.30;;
15996;SDS011;8103;51.340;12.326;2022-08-19T09:36:23;39.88;;;32.08;;
15996;SDS011;8103;51.340;12.326;2022-08-19T09:38:56;27.33;;;24.58;;
15996;SDS011;8103;51.340;12.326;2022-08-19T09:41:23;28.23;;;25.25;;
15996;SDS011;8103;51.340;12.326;2022-08-19T09:43:51;92.90;;;68.10;;
15996;SDS011;8103;51.340;12.326;2022-08-19T09:46:22;30.90;;;25.52;;
15996;SDS011;8103;51.340;12.326;2022-08-19T09:48:52;24.20;;;21.67;;
15996;SDS011;8103;51.340;12.326;2022-08-19T09:51:20;21.10;;;17.90;;
15996;SDS011;8103;51.340;12.326;2022-08-19T09:53:49;23.85;;;21.30;;
15996;SDS011;8103;51.340;12.326;2022-08-19T09:56:18;21.30;;;18.15;;
15996;SDS011;8103;51.340;12.326;2022-08-19T09:58:46;25.60;;;16.20;;
15996;SDS011;8103;51.340;12.326;2022-08-19T10:01:18;17.52;;;15.73;;
15996;SDS011;8103;51.340;12.326;2022-08-19T10:03:48;24.38;;;21.17;;
15996;SDS011;8103;51.340;12.326;2022-08-19T10:06:16;21.55;;;19.30;;
15996;SDS011;8103;51.340;12.326;2022-08-19T10:08:44;20.63;;;18.25;;
15996;SDS011;8103;51.340;12.326;2022-08-19T10:11:15;17.77;;;15.68;;
15996;SDS011;8103;51.340;12.326;2022-08-19T10:13:53;20.05;;;18.05;;
15996;SDS011;8103;51.340;12.326;2022-08-19T10:16:21;17.63;;;15.80;;
15996;SDS011;8103;51.340;12.326;2022-08-19T10:18:52;19.10;;;15.35;;
15996;SDS011;8103;51.340;12.326;2022-08-19T10:21:25;19.45;;;16.88;;
15996;SDS011;8103;51.340;12.326;2022-08-19T10:23:55;16.15;;;14.05;;
15996;SDS011;8103;51.340;12.326;2022-08-19T10:26:25;14.95;;;13.57;;
15996;SDS011;8103;51.340;12.326;2022-08-19T10:28:53;15.80;;;14.10;;
15996;SDS011;8103;51.340;12.326;2022-08-19T10:31:28;15.77;;;14.30;;
15996;SDS011;8103;51.340;12.326;2022-08-19T10:34:16;15.38;;;13.75;;
15996;SDS011;8103;51.340;12.326;2022-08-19T10:36:52;12.75;;;11.45;;
15996;SDS011;8103;51.340;12.326;2022-08-19T10:39:21;17.67;;;14.48;;
15996;SDS011;8103;51.340;12.326;2022-08-19T10:41:48;16.50;;;13.27;;
15996;SDS011;8103;51.340;12.326;2022-08-19T10:44:15;16.08;;;14.55;;
15996;SDS011;8103;51.340;12.326;2022-08-19T10:46:44;13.77;;;12.23;;
15996;SDS011;8103;51.340;12.326;2022-08-19T10:49:14;14.60;;;13.13;;
15996;SDS011;8103;51.340;12.326;2022-08-19T10:51:41;15.52;;;12.95;;
15996;SDS011;8103;51.340;12.326;2022-08-19T10:54:27;11.40;;;10.23;;
15996;SDS011;8103;51.340;12.326;2022-08-19T10:57:14;11.15;;;10.15;;
15996;SDS011;8103;51.340;12.326;2022-08-19T10:59:42;13.93;;;12.45;;
15996;SDS011;8103;51.340;12.326;2022-08-19T11:02:09;16.33;;;12.77;;
15996;SDS011;8103;51.340;12.326;2022-08-19T11:04:38;18.20;;;12.68;;
15996;SDS011;8103;51.340;12.326;2022-08-19T11:07:06;16.92;;;14.05;;
15996;SDS011;8103;51.340;12.326;2022-08-19T11:09:38;17.08;;;13.30;;
15996;SDS011;8103;51.340;12.326;2022-08-19T11:12:07;15.05;;;11.35;;
15996;SDS011;8103;51.340;12.326;2022-08-19T11:14:34;14.73;;;11.00;;
15996;SDS011;8103;51.340;12.326;2022-08-19T11:17:02;10.50;;;9.43;;
15996;SDS011;8103;51.340;12.326;2022-08-19T11:19:30;13.30;;;11.18;;
15996;SDS011;8103;51.340;12.326;2022-08-19T11:21:57;13.07;;;11.70;;
15996;SDS011;8103;51.340;12.326;2022-08-19T11:24:27;11.25;;;8.80;;
15996;SDS011;8103;51.340;12.326;2022-08-19T11:26:58;13.50;;;10.70;;
15996;SDS011;8103;51.340;12.326;2022-08-19T11:29:28;14.40;;;10.88;;
15996;SDS011;8103;51.340;12.326;2022-08-19T11:31:55;17.60;;;13.48;;
15996;SDS011;8103;51.340;12.326;2022-08-19T11:34:23;12.05;;;10.95;;
15996;SDS011;8103;51.340;12.326;2022-08-19T11:36:51;12.13;;;9.93;;
15996;SDS011;8103;51.340;12.326;2022-08-19T11:39:20;13.02;;;10.73;;
15996;SDS011;8103;51.340;12.326;2022-08-19T11:41:48;7.53;;;6.75;;
15996;SDS011;8103;51.340;12.326;2022-08-19T11:44:15;10.35;;;9.30;;
15996;SDS011;8103;51.340;12.326;2022-08-19T11:46:43;12.43;;;8.43;;
15996;SDS011;8103;51.340;12.326;2022-08-19T11:49:13;9.48;;;7.47;;
15996;SDS011;8103;51.340;12.326;2022-08-19T11:51:41;9.80;;;8.90;;
15996;SDS011;8103;51.340;12.326;2022-08-19T11:54:09;11.55;;;10.32;;
15996;SDS011;8103;51.340;12.326;2022-08-19T11:56:36;9.40;;;8.50;;
15996;SDS011;8103;51.340;12.326;2022-08-19T11:59:04;11.68;;;9.40;;
15996;SDS011;8103;51.340;12.326;2022-08-19T12:01:31;10.15;;;8.65;;
15996;SDS011;8103;51.340;12.326;2022-08-19T12:03:58;12.57;;;9.20;;
15996;SDS011;8103;51.340;12.326;2022-08-19T12:06:27;12.25;;;10.27;;
15996;SDS011;8103;51.340;12.326;2022-08-19T12:08:56;11.38;;;9.23;;
15996;SDS011;8103;51.340;12.326;2022-08-19T12:11:24;10.20;;;8.57;;
15996;SDS011;8103;51.340;12.326;2022-08-19T12:13:52;8.65;;;7.35;;
15996;SDS011;8103;51.340;12.326;2022-08-19T12:16:20;7.32;;;6.65;;
15996;SDS011;8103;51.340;12.326;2022-08-19T12:18:49;14.50;;;7.97;;
15996;SDS011;8103;51.340;12.326;2022-08-19T12:21:18;7.70;;;6.93;;
15996;SDS011;8103;51.340;12.326;2022-08-19T12:23:48;8.35;;;7.43;;
15996;SDS011;8103;51.340;12.326;2022-08-19T12:26:21;7.78;;;7.03;;
15996;SDS011;8103;51.340;12.326;2022-08-19T12:28:48;4.45;;;3.63;;
15996;SDS011;8103;51.340;12.326;2022-08-19T12:31:16;6.53;;;4.97;;
15996;SDS011;8103;51.340;12.326;2022-08-19T12:33:43;5.07;;;4.68;;
15996;SDS011;8103;51.340;12.326;2022-08-19T12:36:10;9.27;;;6.00;;
15996;SDS011;8103;51.340;12.326;2022-08-19T12:38:38;5.50;;;5.00;;
15996;SDS011;8103;51.340;12.326;2022-08-19T12:41:08;6.72;;;5.72;;
15996;SDS011;8103;51.340;12.326;2022-08-19T12:43:40;9.85;;;8.82;;
15996;SDS011;8103;51.340;12.326;2022-08-19T12:46:08;7.47;;;6.65;;
15996;SDS011;8103;51.340;12.326;2022-08-19T12:48:36;5.30;;;4.65;;
15996;SDS011;8103;51.340;12.326;2022-08-19T12:51:06;8.00;;;7.40;;
15996;SDS011;8103;51.340;12.326;2022-08-19T12:53:35;6.60;;;5.68;;
15996;SDS011;8103;51.340;12.326;2022-08-19T12:56:04;10.80;;;9.75;;
15996;SDS011;8103;51.340;12.326;2022-08-19T12:58:36;8.60;;;7.78;;
15996;SDS011;8103;51.340;12.326;2022-08-19T13:01:10;7.13;;;6.55;;
15996;SDS011;8103;51.340;12.326;2022-08-19T13:03:39;6.43;;;5.93;;
15996;SDS011;8103;51.340;12.326;2022-08-19T13:06:07;11.85;;;10.85;;
15996;SDS011;8103;51.340;12.326;2022-08-19T13:08:37;10.02;;;9.13;;
15996;SDS011;8103;51.340;12.326;2022-08-19T13:11:09;8.40;;;7.43;;
15996;SDS011;8103;51.340;12.326;2022-08-19T13:13:44;11.60;;;10.55;;
15996;SDS011;8103;51.340;12.326;2022-08-19T13:16:13;9.75;;;8.52;;
15996;SDS011;8103;51.340;12.326;2022-08-19T13:18:41;23.55;;;11.07;;
15996;SDS011;8103;51.340;12.326;2022-08-19T13:21:12;8.27;;;7.57;;
15996;SDS011;8103;51.340;12.326;2022-08-19T13:23:39;9.55;;;8.57;;
15996;SDS011;8103;51.340;12.326;2022-08-19T13:26:07;14.77;;;13.23;;
15996;SDS011;8103;51.340;12.326;2022-08-19T13:28:36;11.50;;;10.32;;
15996;SDS011;8103;51.340;12.326;2022-08-19T13:31:22;10.25;;;9.40;;
15996;SDS011;8103;51.340;12.326;2022-08-19T13:34:10;9.75;;;8.75;;
15996;SDS011;8103;51.340;12.326;2022-08-19T13:36:37;11.30;;;10.30;;
15996;SDS011;8103;51.340;12.326;2022-08-19T13:39:05;13.05;;;11.65;;
15996;SDS011;8103;51.340;12.326;2022-08-19T13:41:35;8.13;;;7.13;;
15996;SDS011;8103;51.340;12.326;2022-08-19T13:44:03;8.52;;;7.70;;
15996;SDS011;8103;51.340;12.326;2022-08-19T13:46:30;12.30;;;11.18;;
15996;SDS011;8103;51.340;12.326;2022-08-19T13:48:57;15.73;;;13.68;;
15996;SDS011;8103;51.340;12.326;2022-08-19T13:51:24;14.18;;;12.88;;
15996;SDS011;8103;51.340;12.326;2022-08-19T13:53:50;13.10;;;11.90;;
15996;SDS011;8103;51.340;12.326;2022-08-19T13:56:18;8.23;;;7.50;;
15996;SDS011;8103;51.340;12.326;2022-08-19T13:58:51;10.65;;;9.45;;
15996;SDS011;8103;51.340;12.326;2022-08-19T14:01:20;13.18;;;11.90;;
15996;SDS011;8103;51.340;12.326;2022-08-19T14:03:48;14.32;;;12.80;;
15996;SDS011;8103;51.340;12.326;2022-08-19T14:06:15;12.95;;;11.63;;
15996;SDS011;8103;51.340;12.326;2022-08-19T14:08:43;11.68;;;10.15;;
15996;SDS011;8103;51.340;12.326;2022-08-19T14:11:11;13.30;;;11.93;;
15996;SDS011;8103;51.340;12.326;2022-08-19T14:13:38;11.85;;;10.75;;
15996;SDS011;8103;51.340;12.326;2022-08-19T14:16:09;9.98;;;8.98;;
15996;SDS011;8103;51.340;12.326;2022-08-19T14:18:37;11.40;;;9.65;;
15996;SDS011;8103;51.340;12.326;2022-08-19T14:21:05;13.38;;;12.07;;
15996;SDS011;8103;51.340;12.326;2022-08-19T14:23:33;12.73;;;11.52;;
15996;SDS011;8103;51.340;12.326;2022-08-19T14:26:18;12.70;;;11.55;;
15996;SDS011;8103;51.340;12.326;2022-08-19T14:28:46;9.90;;;8.98;;
15996;SDS011;8103;51.340;12.326;2022-08-19T14:31:14;11.77;;;10.55;;
15996;SDS011;8103;51.340;12.326;2022-08-19T14:33:46;12.35;;;11.07;;
15996;SDS011;8103;51.340;12.326;2022-08-19T14:36:13;11.05;;;10.00;;
15996;SDS011;8103;51.340;12.326;2022-08-19T14:38:40;11.35;;;10.02;;
15996;SDS011;8103;51.340;12.326;2022-08-19T14:41:20;17.48;;;12.18;;
15996;SDS011;8103;51.340;12.326;2022-08-19T14:43:50;11.30;;;10.15;;
15996;SDS011;8103;51.340;12.326;2022-08-19T14:46:19;16.42;;;11.73;;
15996;SDS011;8103;51.340;12.326;2022-08-19T14:48:48;11.95;;;10.82;;